AirNav   Pilot Hours Calculator
 
 908 users online  

0PN3 Pfizer-Collegeville Heliport
Collegeville, Pennsylvania, USA

GOING TO COLLEGEVILLE?


FAA INFORMATION EFFECTIVE 30 JANUARY 2020

Location

FAA Identifier: 0PN3
Lat/Long: 40-09-31.2300N 075-27-48.3500W
40-09.520500N 075-27.805833W
40.1586750,-75.4634306
(estimated)
Elevation: 175 ft. / 53 m (estimated)
From city: 2 miles S of COLLEGEVILLE, PA
Time zone: UTC -5 (UTC -4 during Daylight Saving Time)
Zip code: 19426

Heliport Operations

Heliport use: Private use. Permission required prior to landing
Activation date: 06/2003
Control tower: no
ARTCC: NEW YORK CENTER
FSS: WILLIAMSPORT FLIGHT SERVICE STATION
NOTAMs facility: FDC (NOTAM-D service not available)
Attendance: UNATNDD
Wind indicator: lighted
Segmented circle: no
Beacon: white-green-yellow (heliport)
Operates sunset to sunrise.

Heliport Communications

WX ASOS at PTW (6 nm NW): 119.425 (610-495-0823)
WX AWOS-3 at LOM (9 nm E): 118.925 (215-646-1068)
WX AWOS-3T at OQN (11 nm SW): 121.4 ((610) 692-6190)
WX AWOS-3 at CKZ (16 nm NE): 126.325 (215-257-7291)
WX AWOS-3 at UKT (17 nm N): 119.475 (215-538-7610)
WX ASOS at DYL (19 nm NE): 118.875 (215-345-0392)

Nearby radio navigation aids

VOR radial/distance  VOR name  Freq  Var
PTWr140/5.9POTTSTOWN VORTAC116.5009W
MXEr042/17.3MODENA VORTAC113.2009W
ARDr267/26.1YARDLEY VOR/DME108.2010W
ETXr167/27.3EAST TEXAS VOR/DME110.2009W
DQOr023/29.6DUPONT VORTAC114.0010W
OODr357/32.2WOODSTOWN VORTAC112.8010W
FJCr191/34.1ALLENTOWN VORTAC117.5010W
LRPr096/38.0LANCASTER VOR/DME117.3009W

 
NDB name  Hdg/Dist  Freq  Var  ID
AMBLER296/8.427512WING .. -. --.

Heliport Services

Runway Information

Helipad H1

Dimensions: 44 x 44 ft. / 13 x 13 m
Surface: concrete
Runway edge lights: PERI
Traffic pattern: leftleft

Heliport Ownership and Management from official FAA records

Ownership: Privately-owned
Owner: PFIZER. INC.
1001 JACK STEPHAN WAY
WEST TRENTON, NJ 08628
Phone (484) 865-5000
Manager: PFIZER-INC. AVIATION DEPT
1001 JACK STEPHAN WAY
WEST TRENTON, NJ 08628
Phone (609) 434-4821

Additional Remarks

FOR CD CTC PHILADELPHIA APCH AT 800-354-9884.

Instrument Procedures

There are no published instrument procedures at 0PN3.

Some nearby airports with instrument procedures:

N10 - Perkiomen Valley Airport (3 nm NE)
KPTW - Heritage Field Airport (6 nm NW)
KLOM - Wings Field Airport (9 nm E)
N47 - Pottstown Municipal Airport (11 nm NW)
KOQN - Brandywine Regional Airport (11 nm SW)
KCKZ - Pennridge Airport (16 nm NE)
KUKT - Quakertown Airport (17 nm N)
KDYL - Doylestown Airport (19 nm NE)
 
Loc | Ops | Rwys | IFR | FBO | Links
Com | Nav | Svcs | Stats | Notes
Area around 0PN3 (Pfizer-Collegeville Heliport)
 
Road maps at: MapQuest Bing Google
 
Aerial photo
No photo
 
Sectional chart

 
Airport distance calculator
Flying to Pfizer-Collegeville Heliport? Find the distance to fly.

From to 0PN3

Sunrise and sunset
Times for 16-Feb-2020
 Local
(UTC-5)
 Zulu
(UTC)
Morning civil twilight06:2711:27
Sunrise06:5511:55
Sunset17:3722:37
Evening civil twilight18:0523:05

Current date and time
Zulu (UTC)  17-Feb-2020 02:22:58
Local (UTC-5)  16-Feb-2020 21:22:58
 
METAR
KPTW 
6nm NW 
170154Z AUTO 00000KT 9SM OVC080 02/M03 A3011 RMK AO2 SLP196 T00221028
KLOM 
9nm E 
170155Z AUTO 00000KT 10SM OVC080 03/M02 A3010 RMK AO2 T00261017
KOQN 
11nm SW 
170155Z AUTO 00000KT 10SM OVC090 04/M03 A3009 RMK AO2
KCKZ 
16nm NE 
170155Z AUTO 00000KT 10SM OVC070 01/M04 A3010 RMK AO2
KUKT 
17nm N 
170200Z AUTO 00000KT 10SM OVC065 02/M03 A3009 RMK A01
KDYL 
19nm NE 
170154Z AUTO 00000KT 10SM OVC080 03/M04 A3009 RMK AO2 SLP194 T00331039 $
TAF
NOTAMs
Click for the latest NOTAMs
NOTAMs are issued by the DoD/FAA and will open in a separate window not controlled by AirNav.

 

 
 

Would you like to see your business listed on this page?

 If your business provides an interesting product or service to pilots, flight crews, aircraft, or users of the Pfizer-Collegeville Heliport, you should consider listing it here.  To start the listing process, click on the button below
 
Add a business
 

Other Pages about Pfizer-Collegeville Heliport

Update a link
 
Copyright © AirNav, LLC. All rights reserved. Privacy Policy  Contact